sensor_id;sensor_type;location;lat;lon;timestamp;pressure;altitude;pressure_sealevel;temperature;humidity
60832;BME280;46665;51.558;-0.448;2023-05-12T00:00:30;101410.94;;;9.98;100.00
60832;BME280;46665;51.558;-0.448;2023-05-12T00:02:55;101422.66;;;10.04;100.00
60832;BME280;46665;51.558;-0.448;2023-05-12T00:05:20;101418.84;;;10.05;100.00
60832;BME280;46665;51.558;-0.448;2023-05-12T00:07:46;101416.97;;;10.05;100.00
60832;BME280;46665;51.558;-0.448;2023-05-12T00:10:12;101424.91;;;10.12;100.00
60832;BME280;46665;51.558;-0.448;2023-05-12T00:12:38;101421.41;;;10.16;100.00
60832;BME280;46665;51.558;-0.448;2023-05-12T00:15:04;101421.69;;;10.20;100.00
60832;BME280;46665;51.558;-0.448;2023-05-12T00:17:30;101425.00;;;10.22;100.00
60832;BME280;46665;51.558;-0.448;2023-05-12T00:19:56;101429.38;;;10.23;100.00
60832;BME280;46665;51.558;-0.448;2023-05-12T00:22:22;101429.38;;;10.23;100.00
60832;BME280;46665;51.558;-0.448;2023-05-12T00:24:49;101428.53;;;10.23;100.00
60832;BME280;46665;51.558;-0.448;2023-05-12T00:27:14;101429.03;;;10.19;100.00
60832;BME280;46665;51.558;-0.448;2023-05-12T00:29:41;101435.81;;;10.17;100.00
60832;BME280;46665;51.558;-0.448;2023-05-12T00:32:06;101437.72;;;10.16;100.00
60832;BME280;46665;51.558;-0.448;2023-05-12T00:34:32;101428.97;;;10.09;100.00
60832;BME280;46665;51.558;-0.448;2023-05-12T00:36:57;101423.75;;;10.03;100.00
60832;BME280;46665;51.558;-0.448;2023-05-12T00:39:23;101432.16;;;10.01;100.00
60832;BME280;46665;51.558;-0.448;2023-05-12T00:41:54;101429.97;;;9.98;100.00
60832;BME280;46665;51.558;-0.448;2023-05-12T00:44:21;101437.50;;;9.91;100.00
60832;BME280;46665;51.558;-0.448;2023-05-12T00:46:46;101433.66;;;9.87;100.00
60832;BME280;46665;51.558;-0.448;2023-05-12T00:49:11;101432.53;;;9.83;100.00
60832;BME280;46665;51.558;-0.448;2023-05-12T00:51:38;101441.50;;;9.83;100.00
60832;BME280;46665;51.558;-0.448;2023-05-12T00:54:04;101429.81;;;9.83;100.00
60832;BME280;46665;51.558;-0.448;2023-05-12T00:56:30;101445.59;;;9.86;100.00
60832;BME280;46665;51.558;-0.448;2023-05-12T00:58:59;101439.59;;;9.84;100.00
60832;BME280;46665;51.558;-0.448;2023-05-12T01:01:25;101446.13;;;9.83;100.00
60832;BME280;46665;51.558;-0.448;2023-05-12T01:03:51;101451.81;;;9.81;100.00
60832;BME280;46665;51.558;-0.448;2023-05-12T01:06:22;101455.28;;;9.76;100.00
60832;BME280;46665;51.558;-0.448;2023-05-12T01:08:51;101447.66;;;9.73;100.00
60832;BME280;46665;51.558;-0.448;2023-05-12T01:11:17;101460.16;;;9.74;100.00
60832;BME280;46665;51.558;-0.448;2023-05-12T01:13:43;101458.78;;;9.72;100.00
60832;BME280;46665;51.558;-0.448;2023-05-12T01:16:08;101465.59;;;9.74;100.00
60832;BME280;46665;51.558;-0.448;2023-05-12T01:18:37;101461.25;;;9.73;100.00
60832;BME280;46665;51.558;-0.448;2023-05-12T01:21:04;101471.03;;;9.74;100.00
60832;BME280;46665;51.558;-0.448;2023-05-12T01:23:35;101465.28;;;9.71;100.00
60832;BME280;46665;51.558;-0.448;2023-05-12T01:26:08;101466.09;;;9.71;100.00
60832;BME280;46665;51.558;-0.448;2023-05-12T01:28:34;101465.00;;;9.67;100.00
60832;BME280;46665;51.558;-0.448;2023-05-12T01:31:02;101466.88;;;9.67;100.00
60832;BME280;46665;51.558;-0.448;2023-05-12T01:33:28;101463.34;;;9.66;100.00
60832;BME280;46665;51.558;-0.448;2023-05-12T01:35:53;101461.88;;;9.59;100.00
60832;BME280;46665;51.558;-0.448;2023-05-12T01:38:18;101464.59;;;9.59;100.00
60832;BME280;46665;51.558;-0.448;2023-05-12T01:40:44;101467.59;;;9.57;100.00
60832;BME280;46665;51.558;-0.448;2023-05-12T01:43:09;101469.97;;;9.53;100.00
60832;BME280;46665;51.558;-0.448;2023-05-12T01:45:35;101467.22;;;9.48;100.00
60832;BME280;46665;51.558;-0.448;2023-05-12T01:48:00;101480.56;;;9.50;100.00
60832;BME280;46665;51.558;-0.448;2023-05-12T01:50:26;101482.69;;;9.48;100.00
60832;BME280;46665;51.558;-0.448;2023-05-12T01:52:51;101477.44;;;9.41;100.00
60832;BME280;46665;51.558;-0.448;2023-05-12T01:55:17;101471.94;;;9.36;100.00
60832;BME280;46665;51.558;-0.448;2023-05-12T01:57:42;101475.34;;;9.26;100.00
60832;BME280;46665;51.558;-0.448;2023-05-12T02:00:08;101484.63;;;9.30;100.00
60832;BME280;46665;51.558;-0.448;2023-05-12T02:02:34;101483.06;;;9.35;100.00
60832;BME280;46665;51.558;-0.448;2023-05-12T02:04:59;101485.22;;;9.32;100.00
60832;BME280;46665;51.558;-0.448;2023-05-12T02:07:24;101480.59;;;9.33;100.00
60832;BME280;46665;51.558;-0.448;2023-05-12T02:09:50;101487.19;;;9.37;100.00
60832;BME280;46665;51.558;-0.448;2023-05-12T02:12:16;101486.97;;;9.44;100.00
60832;BME280;46665;51.558;-0.448;2023-05-12T02:14:41;101490.09;;;9.52;100.00
60832;BME280;46665;51.558;-0.448;2023-05-12T02:17:07;101486.84;;;9.55;100.00
60832;BME280;46665;51.558;-0.448;2023-05-12T02:19:32;101482.28;;;9.61;100.00
60832;BME280;46665;51.558;-0.448;2023-05-12T02:21:58;101485.06;;;9.66;100.00
60832;BME280;46665;51.558;-0.448;2023-05-12T02:24:23;101487.84;;;9.71;100.00
60832;BME280;46665;51.558;-0.448;2023-05-12T02:26:48;101479.22;;;9.80;100.00
60832;BME280;46665;51.558;-0.448;2023-05-12T02:29:14;101479.28;;;9.85;100.00
60832;BME280;46665;51.558;-0.448;2023-05-12T02:31:39;101479.09;;;9.91;100.00
60832;BME280;46665;51.558;-0.448;2023-05-12T02:34:05;101494.38;;;9.97;100.00
60832;BME280;46665;51.558;-0.448;2023-05-12T02:36:30;101491.66;;;9.97;100.00
60832;BME280;46665;51.558;-0.448;2023-05-12T02:38:56;101491.47;;;10.04;100.00
60832;BME280;46665;51.558;-0.448;2023-05-12T02:41:22;101489.31;;;10.06;100.00
60832;BME280;46665;51.558;-0.448;2023-05-12T02:43:48;101495.38;;;10.13;100.00
60832;BME280;46665;51.558;-0.448;2023-05-12T02:46:13;101494.84;;;10.16;100.00
60832;BME280;46665;51.558;-0.448;2023-05-12T02:48:39;101494.59;;;10.18;100.00
60832;BME280;46665;51.558;-0.448;2023-05-12T02:51:04;101493.25;;;10.20;100.00
60832;BME280;46665;51.558;-0.448;2023-05-12T02:53:29;101506.63;;;10.27;100.00
60832;BME280;46665;51.558;-0.448;2023-05-12T02:55:55;101508.06;;;10.30;100.00
60832;BME280;46665;51.558;-0.448;2023-05-12T02:58:21;101509.19;;;10.34;100.00
60832;BME280;46665;51.558;-0.448;2023-05-12T03:00:46;101508.66;;;10.37;100.00
60832;BME280;46665;51.558;-0.448;2023-05-12T03:03:11;101514.69;;;10.39;100.00
60832;BME280;46665;51.558;-0.448;2023-05-12T03:05:37;101516.88;;;10.42;100.00
60832;BME280;46665;51.558;-0.448;2023-05-12T03:08:03;101523.44;;;10.46;100.00
60832;BME280;46665;51.558;-0.448;2023-05-12T03:10:29;101524.03;;;10.48;100.00
60832;BME280;46665;51.558;-0.448;2023-05-12T03:12:54;101526.41;;;10.45;100.00
60832;BME280;46665;51.558;-0.448;2023-05-12T03:15:20;101518.00;;;10.46;100.00
60832;BME280;46665;51.558;-0.448;2023-05-12T03:17:45;101524.50;;;10.45;100.00
60832;BME280;46665;51.558;-0.448;2023-05-12T03:20:10;101522.34;;;10.47;100.00
60832;BME280;46665;51.558;-0.448;2023-05-12T03:22:36;101524.50;;;10.45;100.00
60832;BME280;46665;51.558;-0.448;2023-05-12T03:25:02;101521.78;;;10.45;100.00
60832;BME280;46665;51.558;-0.448;2023-05-12T03:27:30;101526.66;;;10.43;100.00
60832;BME280;46665;51.558;-0.448;2023-05-12T03:29:56;101526.66;;;10.43;100.00
60832;BME280;46665;51.558;-0.448;2023-05-12T03:32:24;101523.41;;;10.41;100.00
60832;BME280;46665;51.558;-0.448;2023-05-12T03:34:50;101539.44;;;10.43;100.00
60832;BME280;46665;51.558;-0.448;2023-05-12T03:37:15;101539.16;;;10.39;100.00
60832;BME280;46665;51.558;-0.448;2023-05-12T03:39:41;101542.41;;;10.36;100.00
60832;BME280;46665;51.558;-0.448;2023-05-12T03:42:06;101547.28;;;10.34;100.00
60832;BME280;46665;51.558;-0.448;2023-05-12T03:44:32;101545.88;;;10.31;100.00
60832;BME280;46665;51.558;-0.448;2023-05-12T03:46:57;101552.88;;;10.27;100.00
60832;BME280;46665;51.558;-0.448;2023-05-12T03:49:22;101559.09;;;10.23;100.00
60832;BME280;46665;51.558;-0.448;2023-05-12T03:51:48;101556.59;;;10.16;100.00
60832;BME280;46665;51.558;-0.448;2023-05-12T03:54:13;101564.38;;;10.07;100.00
60832;BME280;46665;51.558;-0.448;2023-05-12T03:56:39;101564.88;;;10.04;100.00
60832;BME280;46665;51.558;-0.448;2023-05-12T03:59:04;101561.09;;;10.05;100.00
60832;BME280;46665;51.558;-0.448;2023-05-12T04:01:30;101578.22;;;10.06;100.00
60832;BME280;46665;51.558;-0.448;2023-05-12T04:03:56;101574.44;;;10.07;100.00
60832;BME280;46665;51.558;-0.448;2023-05-12T04:06:21;101568.41;;;10.05;100.00
60832;BME280;46665;51.558;-0.448;2023-05-12T04:08:46;101583.97;;;10.09;100.00
60832;BME280;46665;51.558;-0.448;2023-05-12T04:11:12;101576.13;;;10.13;100.00
60832;BME280;46665;51.558;-0.448;2023-05-12T04:13:38;101587.25;;;10.11;100.00
60832;BME280;46665;51.558;-0.448;2023-05-12T04:16:04;101585.34;;;10.12;100.00
60832;BME280;46665;51.558;-0.448;2023-05-12T04:18:29;101582.91;;;10.10;100.00
60832;BME280;46665;51.558;-0.448;2023-05-12T04:20:55;101587.78;;;10.08;100.00
60832;BME280;46665;51.558;-0.448;2023-05-12T04:23:20;101591.56;;;10.07;100.00
60832;BME280;46665;51.558;-0.448;2023-05-12T04:25:46;101591.31;;;10.09;100.00
60832;BME280;46665;51.558;-0.448;2023-05-12T04:28:12;101595.38;;;10.06;100.00
60832;BME280;46665;51.558;-0.448;2023-05-12T04:30:39;101593.47;;;10.07;100.00
60832;BME280;46665;51.558;-0.448;2023-05-12T04:33:06;101598.31;;;10.05;100.00
60832;BME280;46665;51.558;-0.448;2023-05-12T04:35:32;101596.13;;;10.02;100.00
60832;BME280;46665;51.558;-0.448;2023-05-12T04:37:57;101594.50;;;10.01;100.00
60832;BME280;46665;51.558;-0.448;2023-05-12T04:40:25;101589.53;;;9.97;100.00
60832;BME280;46665;51.558;-0.448;2023-05-12T04:42:50;101601.25;;;9.98;100.00
60832;BME280;46665;51.558;-0.448;2023-05-12T04:45:16;101581.13;;;9.99;100.00
60832;BME280;46665;51.558;-0.448;2023-05-12T04:47:41;101600.16;;;9.99;100.00
60832;BME280;46665;51.558;-0.448;2023-05-12T04:50:07;101607.00;;;10.02;100.00
60832;BME280;46665;51.558;-0.448;2023-05-12T04:52:34;101601.81;;;10.00;100.00
60832;BME280;46665;51.558;-0.448;2023-05-12T04:54:59;101602.94;;;10.04;100.00
60832;BME280;46665;51.558;-0.448;2023-05-12T04:57:25;101605.09;;;10.02;100.00
60832;BME280;46665;51.558;-0.448;2023-05-12T04:59:50;101607.88;;;10.07;100.00
60832;BME280;46665;51.558;-0.448;2023-05-12T05:02:16;101617.34;;;10.05;100.00
60832;BME280;46665;51.558;-0.448;2023-05-12T05:04:41;101623.94;;;10.09;100.00
60832;BME280;46665;51.558;-0.448;2023-05-12T05:07:07;101630.47;;;10.08;100.00
60832;BME280;46665;51.558;-0.448;2023-05-12T05:09:33;101626.44;;;10.10;100.00
60832;BME280;46665;51.558;-0.448;2023-05-12T05:11:58;101623.72;;;10.10;100.00
60832;BME280;46665;51.558;-0.448;2023-05-12T05:14:23;101631.34;;;10.13;100.00
60832;BME280;46665;51.558;-0.448;2023-05-12T05:16:49;101634.88;;;10.14;100.00
60832;BME280;46665;51.558;-0.448;2023-05-12T05:19:14;101634.66;;;10.15;100.00
60832;BME280;46665;51.558;-0.448;2023-05-12T05:21:41;101635.47;;;10.16;100.00
60832;BME280;46665;51.558;-0.448;2023-05-12T05:24:06;101638.19;;;10.16;100.00
60832;BME280;46665;51.558;-0.448;2023-05-12T05:26:32;101635.13;;;10.12;100.00
60832;BME280;46665;51.558;-0.448;2023-05-12T05:28:57;101632.41;;;10.12;100.00
60832;BME280;46665;51.558;-0.448;2023-05-12T05:31:23;101636.47;;;10.10;100.00
60832;BME280;46665;51.558;-0.448;2023-05-12T05:33:48;101629.69;;;10.12;100.00
60832;BME280;46665;51.558;-0.448;2023-05-12T05:36:14;101640.91;;;10.16;100.00
60832;BME280;46665;51.558;-0.448;2023-05-12T05:38:39;101643.34;;;10.17;100.00
60832;BME280;46665;51.558;-0.448;2023-05-12T05:41:05;101644.44;;;10.16;100.00
60832;BME280;46665;51.558;-0.448;2023-05-12T05:43:30;101650.19;;;10.20;100.00
60832;BME280;46665;51.558;-0.448;2023-05-12T05:45:56;101654.84;;;10.25;100.00
60832;BME280;46665;51.558;-0.448;2023-05-12T05:48:25;101662.06;;;10.31;100.00
60832;BME280;46665;51.558;-0.448;2023-05-12T05:50:51;101663.69;;;10.32;100.00
60832;BME280;46665;51.558;-0.448;2023-05-12T05:53:18;101664.25;;;10.34;100.00
60832;BME280;46665;51.558;-0.448;2023-05-12T05:55:44;101672.41;;;10.34;100.00
60832;BME280;46665;51.558;-0.448;2023-05-12T05:58:10;101671.91;;;10.37;100.00
60832;BME280;46665;51.558;-0.448;2023-05-12T06:00:36;101667.84;;;10.39;100.00
60832;BME280;46665;51.558;-0.448;2023-05-12T06:03:02;101677.41;;;10.42;100.00
60832;BME280;46665;51.558;-0.448;2023-05-12T06:05:28;101662.97;;;10.41;100.00
60832;BME280;46665;51.558;-0.448;2023-05-12T06:07:54;101671.19;;;10.47;100.00
60832;BME280;46665;51.558;-0.448;2023-05-12T06:10:19;101669.63;;;10.51;100.00
60832;BME280;46665;51.558;-0.448;2023-05-12T06:12:45;101680.81;;;10.54;100.00
60832;BME280;46665;51.558;-0.448;2023-05-12T06:15:10;101678.66;;;10.56;100.00
60832;BME280;46665;51.558;-0.448;2023-05-12T06:17:36;101669.75;;;10.61;100.00
60832;BME280;46665;51.558;-0.448;2023-05-12T06:20:02;101670.09;;;10.70;100.00
60832;BME280;46665;51.558;-0.448;2023-05-12T06:22:29;101679.94;;;10.76;100.00
60832;BME280;46665;51.558;-0.448;2023-05-12T06:24:54;101676.50;;;10.85;100.00
60832;BME280;46665;51.558;-0.448;2023-05-12T06:27:19;101683.09;;;10.90;100.00
60832;BME280;46665;51.558;-0.448;2023-05-12T06:29:45;101683.41;;;10.98;100.00
60832;BME280;46665;51.558;-0.448;2023-05-12T06:32:10;101691.91;;;11.02;100.00
60832;BME280;46665;51.558;-0.448;2023-05-12T06:34:35;101689.53;;;11.11;100.00
60832;BME280;46665;51.558;-0.448;2023-05-12T06:37:01;101684.41;;;11.14;100.00
60832;BME280;46665;51.558;-0.448;2023-05-12T06:39:26;101690.94;;;11.18;100.00
60832;BME280;46665;51.558;-0.448;2023-05-12T06:41:51;101680.66;;;11.25;100.00
60832;BME280;46665;51.558;-0.448;2023-05-12T06:44:17;101688.63;;;11.32;100.00
60832;BME280;46665;51.558;-0.448;2023-05-12T06:46:42;101681.84;;;11.35;100.00
60832;BME280;46665;51.558;-0.448;2023-05-12T06:49:09;101687.81;;;11.37;100.00
60832;BME280;46665;51.558;-0.448;2023-05-12T06:51:34;101700.44;;;11.43;100.00
60832;BME280;46665;51.558;-0.448;2023-05-12T06:54:00;101695.22;;;11.41;100.00
60832;BME280;46665;51.558;-0.448;2023-05-12T06:56:26;101696.34;;;11.45;100.00
60832;BME280;46665;51.558;-0.448;2023-05-12T06:58:54;101704.00;;;11.48;100.00
60832;BME280;46665;51.558;-0.448;2023-05-12T07:01:28;101698.50;;;11.43;100.00
60832;BME280;46665;51.558;-0.448;2023-05-12T07:03:54;101708.06;;;11.46;100.00
60832;BME280;46665;51.558;-0.448;2023-05-12T07:06:20;101700.72;;;11.46;100.00
60832;BME280;46665;51.558;-0.448;2023-05-12T07:08:46;101712.19;;;11.48;100.00
60832;BME280;46665;51.558;-0.448;2023-05-12T07:11:11;101704.84;;;11.54;100.00
60832;BME280;46665;51.558;-0.448;2023-05-12T07:13:37;101707.38;;;11.61;100.00
60832;BME280;46665;51.558;-0.448;2023-05-12T07:16:03;101711.72;;;11.62;100.00
60832;BME280;46665;51.558;-0.448;2023-05-12T07:18:29;101712.00;;;11.60;100.00
60832;BME280;46665;51.558;-0.448;2023-05-12T07:20:54;101699.47;;;11.64;100.00
60832;BME280;46665;51.558;-0.448;2023-05-12T07:23:20;101712.09;;;11.76;100.00
60832;BME280;46665;51.558;-0.448;2023-05-12T07:25:46;101710.47;;;11.80;100.00
60832;BME280;46665;51.558;-0.448;2023-05-12T07:28:11;101707.25;;;11.83;100.00
60832;BME280;46665;51.558;-0.448;2023-05-12T07:30:37;101702.59;;;11.83;100.00
60832;BME280;46665;51.558;-0.448;2023-05-12T07:33:03;101717.94;;;11.89;100.00
60832;BME280;46665;51.558;-0.448;2023-05-12T07:35:28;101715.53;;;11.93;100.00
60832;BME280;46665;51.558;-0.448;2023-05-12T07:37:55;101718.81;;;11.95;100.00
60832;BME280;46665;51.558;-0.448;2023-05-12T07:40:20;101721.81;;;11.99;100.00
60832;BME280;46665;51.558;-0.448;2023-05-12T07:42:46;101725.66;;;11.98;100.00
60832;BME280;46665;51.558;-0.448;2023-05-12T07:45:11;101718.84;;;12.00;100.00
60832;BME280;46665;51.558;-0.448;2023-05-12T07:47:36;101716.94;;;12.06;100.00
60832;BME280;46665;51.558;-0.448;2023-05-12T07:50:02;101712.03;;;12.03;100.00
60832;BME280;46665;51.558;-0.448;2023-05-12T07:52:27;101734.09;;;12.01;100.00
60832;BME280;46665;51.558;-0.448;2023-05-12T07:54:55;101726.44;;;11.93;100.00
60832;BME280;46665;51.558;-0.448;2023-05-12T07:57:20;101722.03;;;11.92;100.00
60832;BME280;46665;51.558;-0.448;2023-05-12T07:59:46;101719.53;;;11.85;100.00
60832;BME280;46665;51.558;-0.448;2023-05-12T08:02:11;101723.13;;;11.91;100.00
60832;BME280;46665;51.558;-0.448;2023-05-12T08:04:37;101728.09;;;11.99;100.00
60832;BME280;46665;51.558;-0.448;2023-05-12T08:07:02;101728.94;;;12.05;100.00
60832;BME280;46665;51.558;-0.448;2023-05-12T08:09:27;101732.84;;;12.19;100.00
60832;BME280;46665;51.558;-0.448;2023-05-12T08:11:53;101727.16;;;12.26;100.00
60832;BME280;46665;51.558;-0.448;2023-05-12T08:14:18;101729.03;;;12.25;100.00
60832;BME280;46665;51.558;-0.448;2023-05-12T08:16:44;101721.13;;;12.24;100.00
60832;BME280;46665;51.558;-0.448;2023-05-12T08:19:13;101721.41;;;12.27;100.00
60832;BME280;46665;51.558;-0.448;2023-05-12T08:21:38;101724.47;;;12.36;100.00
60832;BME280;46665;51.558;-0.448;2023-05-12T08:24:04;101730.75;;;12.36;100.00
60832;BME280;46665;51.558;-0.448;2023-05-12T08:26:30;101728.53;;;12.33;100.00
60832;BME280;46665;51.558;-0.448;2023-05-12T08:28:55;101732.59;;;12.26;100.00
60832;BME280;46665;51.558;-0.448;2023-05-12T08:31:21;101741.63;;;12.31;100.00
60832;BME280;46665;51.558;-0.448;2023-05-12T08:33:46;101735.09;;;12.38;100.00
60832;BME280;46665;51.558;-0.448;2023-05-12T08:36:12;101747.13;;;12.42;100.00
60832;BME280;46665;51.558;-0.448;2023-05-12T08:38:37;101732.91;;;12.34;100.00
60832;BME280;46665;51.558;-0.448;2023-05-12T08:41:15;101742.47;;;12.37;100.00
60832;BME280;46665;51.558;-0.448;2023-05-12T08:43:45;101741.13;;;12.40;100.00
60832;BME280;46665;51.558;-0.448;2023-05-12T08:46:14;101750.66;;;12.37;100.00
60832;BME280;46665;51.558;-0.448;2023-05-12T08:48:40;101750.66;;;12.37;100.00
60832;BME280;46665;51.558;-0.448;2023-05-12T08:51:07;101744.94;;;12.33;100.00
60832;BME280;46665;51.558;-0.448;2023-05-12T08:53:37;101758.06;;;12.42;100.00
60832;BME280;46665;51.558;-0.448;2023-05-12T08:56:05;101753.44;;;12.52;100.00
60832;BME280;46665;51.558;-0.448;2023-05-12T08:58:32;101755.97;;;12.64;100.00
60832;BME280;46665;51.558;-0.448;2023-05-12T09:00:59;101756.00;;;12.74;100.00
60832;BME280;46665;51.558;-0.448;2023-05-12T09:03:26;101758.50;;;12.91;100.00
60832;BME280;46665;51.558;-0.448;2023-05-12T09:05:54;101756.59;;;12.87;100.00
60832;BME280;46665;51.558;-0.448;2023-05-12T09:08:22;101762.03;;;12.82;100.00
60832;BME280;46665;51.558;-0.448;2023-05-12T09:10:48;101757.13;;;12.89;100.00
60832;BME280;46665;51.558;-0.448;2023-05-12T09:13:32;101765.88;;;12.96;98.88
60832;BME280;46665;51.558;-0.448;2023-05-12T09:16:00;101756.06;;;12.95;98.58
60832;BME280;46665;51.558;-0.448;2023-05-12T09:18:52;101764.25;;;13.00;97.94
60832;BME280;46665;51.558;-0.448;2023-05-12T09:21:18;101769.69;;;12.90;97.99
60832;BME280;46665;51.558;-0.448;2023-05-12T09:24:05;101753.31;;;12.90;99.25
60832;BME280;46665;51.558;-0.448;2023-05-12T09:26:45;101761.50;;;12.95;99.67
60832;BME280;46665;51.558;-0.448;2023-05-12T09:29:11;101757.41;;;12.87;98.56
60832;BME280;46665;51.558;-0.448;2023-05-12T09:31:37;101762.28;;;12.80;98.50
60832;BME280;46665;51.558;-0.448;2023-05-12T09:34:08;101760.69;;;12.89;100.00
60832;BME280;46665;51.558;-0.448;2023-05-12T09:36:34;101771.09;;;12.97;100.00
60832;BME280;46665;51.558;-0.448;2023-05-12T09:39:04;101762.34;;;13.06;100.00
60832;BME280;46665;51.558;-0.448;2023-05-12T09:41:37;101764.53;;;13.14;100.00
60832;BME280;46665;51.558;-0.448;2023-05-12T09:44:03;101772.47;;;13.10;100.00
60832;BME280;46665;51.558;-0.448;2023-05-12T09:46:29;101775.75;;;13.02;100.00
60832;BME280;46665;51.558;-0.448;2023-05-12T09:48:56;101775.44;;;12.98;100.00
60832;BME280;46665;51.558;-0.448;2023-05-12T09:51:22;101782.00;;;12.97;100.00
60832;BME280;46665;51.558;-0.448;2023-05-12T09:53:48;101763.09;;;12.80;99.85
60832;BME280;46665;51.558;-0.448;2023-05-12T09:56:16;101779.75;;;12.74;99.69
60832;BME280;46665;51.558;-0.448;2023-05-12T09:58:45;101771.56;;;12.74;100.00
60832;BME280;46665;51.558;-0.448;2023-05-12T10:01:15;101769.09;;;12.77;98.35
60832;BME280;46665;51.558;-0.448;2023-05-12T10:03:44;101777.88;;;12.85;99.34
60832;BME280;46665;51.558;-0.448;2023-05-12T10:06:13;101767.78;;;12.95;97.99
60832;BME280;46665;51.558;-0.448;2023-05-12T10:08:45;101765.88;;;13.01;98.23
60832;BME280;46665;51.558;-0.448;2023-05-12T10:11:13;101768.63;;;13.06;98.09
60832;BME280;46665;51.558;-0.448;2023-05-12T10:13:39;101771.34;;;13.01;98.83
60832;BME280;46665;51.558;-0.448;2023-05-12T10:16:06;101767.00;;;13.05;98.46
60832;BME280;46665;51.558;-0.448;2023-05-12T10:18:32;101774.09;;;13.11;98.56
60832;BME280;46665;51.558;-0.448;2023-05-12T10:20:59;101777.38;;;13.08;97.47
60832;BME280;46665;51.558;-0.448;2023-05-12T10:23:26;101781.75;;;12.94;96.80
60832;BME280;46665;51.558;-0.448;2023-05-12T10:25:53;101783.59;;;12.83;97.36
60832;BME280;46665;51.558;-0.448;2023-05-12T10:28:23;101773.44;;;12.68;97.46
60832;BME280;46665;51.558;-0.448;2023-05-12T10:30:49;101781.91;;;12.67;98.83
60832;BME280;46665;51.558;-0.448;2023-05-12T10:33:15;101771.78;;;12.62;100.00
60832;BME280;46665;51.558;-0.448;2023-05-12T10:35:42;101769.34;;;12.66;100.00
60832;BME280;46665;51.558;-0.448;2023-05-12T10:38:13;101779.97;;;12.62;100.00
60832;BME280;46665;51.558;-0.448;2023-05-12T10:41:00;101785.69;;;12.61;100.00
60832;BME280;46665;51.558;-0.448;2023-05-12T10:43:28;101785.41;;;12.52;100.00
60832;BME280;46665;51.558;-0.448;2023-05-12T10:46:19;101782.41;;;12.53;100.00
60832;BME280;46665;51.558;-0.448;2023-05-12T10:49:07;101779.13;;;12.51;100.00
60832;BME280;46665;51.558;-0.448;2023-05-12T10:51:57;101776.06;;;12.43;100.00
60832;BME280;46665;51.558;-0.448;2023-05-12T10:54:24;101782.38;;;12.43;100.00
60832;BME280;46665;51.558;-0.448;2023-05-12T10:56:50;101778.25;;;12.41;100.00
60832;BME280;46665;51.558;-0.448;2023-05-12T10:59:19;101769.47;;;12.28;100.00
60832;BME280;46665;51.558;-0.448;2023-05-12T11:01:56;101773.22;;;12.22;100.00
60832;BME280;46665;51.558;-0.448;2023-05-12T11:05:01;101766.91;;;12.11;100.00
60832;BME280;46665;51.558;-0.448;2023-05-12T11:07:32;101760.59;;;12.06;100.00
60832;BME280;46665;51.558;-0.448;2023-05-12T11:10:00;101769.84;;;12.05;100.00
60832;BME280;46665;51.558;-0.448;2023-05-12T11:12:30;101759.22;;;12.03;100.00
60832;BME280;46665;51.558;-0.448;2023-05-12T11:14:58;101745.81;;;11.97;100.00
60832;BME280;46665;51.558;-0.448;2023-05-12T11:17:24;101737.06;;;11.95;100.00
60832;BME280;46665;51.558;-0.448;2023-05-12T11:19:50;101740.38;;;12.02;100.00
60832;BME280;46665;51.558;-0.448;2023-05-12T11:22:18;101739.38;;;12.13;100.00
60832;BME280;46665;51.558;-0.448;2023-05-12T11:24:44;101736.94;;;12.22;100.00
60832;BME280;46665;51.558;-0.448;2023-05-12T11:27:14;101747.63;;;12.28;100.00
60832;BME280;46665;51.558;-0.448;2023-05-12T11:29:40;101748.97;;;12.26;100.00
60832;BME280;46665;51.558;-0.448;2023-05-12T11:32:07;101750.63;;;12.27;100.00
60832;BME280;46665;51.558;-0.448;2023-05-12T11:34:32;101735.81;;;12.18;100.00
60832;BME280;46665;51.558;-0.448;2023-05-12T11:36:58;101744.53;;;12.14;100.00
60832;BME280;46665;51.558;-0.448;2023-05-12T11:39:27;101735.25;;;12.05;100.00
60832;BME280;46665;51.558;-0.448;2023-05-12T11:42:06;101728.69;;;12.06;100.00
60832;BME280;46665;51.558;-0.448;2023-05-12T11:44:35;101722.69;;;12.09;100.00
60832;BME280;46665;51.558;-0.448;2023-05-12T11:47:02;101738.28;;;12.14;100.00
60832;BME280;46665;51.558;-0.448;2023-05-12T11:49:30;101722.44;;;12.11;100.00
60832;BME280;46665;51.558;-0.448;2023-05-12T11:51:58;101736.91;;;12.11;100.00
60832;BME280;46665;51.558;-0.448;2023-05-12T11:54:23;101733.59;;;12.09;100.00
60832;BME280;46665;51.558;-0.448;2023-05-12T11:56:53;101723.28;;;12.17;100.00
60832;BME280;46665;51.558;-0.448;2023-05-12T11:59:30;101729.31;;;12.24;100.00
60832;BME280;46665;51.558;-0.448;2023-05-12T12:01:57;101735.38;;;12.31;100.00
60832;BME280;46665;51.558;-0.448;2023-05-12T12:04:35;101733.47;;;12.36;100.00
60832;BME280;46665;51.558;-0.448;2023-05-12T12:07:02;101727.22;;;12.46;100.00
60832;BME280;46665;51.558;-0.448;2023-05-12T12:09:30;101731.56;;;12.42;100.00
60832;BME280;46665;51.558;-0.448;2023-05-12T12:11:56;101732.72;;;12.51;100.00
60832;BME280;46665;51.558;-0.448;2023-05-12T12:14:21;101714.63;;;12.35;100.00
60832;BME280;46665;51.558;-0.448;2023-05-12T12:16:46;101732.38;;;12.38;100.00
60832;BME280;46665;51.558;-0.448;2023-05-12T12:19:12;101734.88;;;12.49;100.00
60832;BME280;46665;51.558;-0.448;2023-05-12T12:21:37;101738.41;;;12.45;100.00
60832;BME280;46665;51.558;-0.448;2023-05-12T12:24:03;101724.72;;;12.34;100.00
60832;BME280;46665;51.558;-0.448;2023-05-12T12:26:30;101724.47;;;12.36;100.00
60832;BME280;46665;51.558;-0.448;2023-05-12T12:28:55;101725.34;;;12.52;100.00
60832;BME280;46665;51.558;-0.448;2023-05-12T12:31:21;101726.50;;;12.66;100.00